createdAt,value
2019-04-21T01:20:18.734Z,3.1
2019-04-21T01:23:15.061Z,3
2019-04-21T09:35:24.441Z,3.5
2019-04-21T09:50:15.408Z,3.7
2019-04-21T10:05:15.043Z,3.1
2019-04-21T10:08:14.854Z,3.4
2019-04-21T10:11:14.481Z,3
2019-04-21T10:14:14.181Z,3.1
2019-04-21T10:17:15.510Z,3.6
2019-04-21T10:20:14.112Z,3.2
2019-04-21T10:23:13.941Z,3.3
2019-04-21T10:28:13.261Z,4.8
2019-04-21T10:33:14.115Z,3.2
2019-04-21T10:36:14.901Z,5.4
2019-04-21T10:39:16.142Z,4.2
2019-04-21T10:42:15.083Z,3.4
2019-04-21T10:45:14.523Z,3.7
2019-04-21T10:52:45.177Z,3.8
2019-04-21T10:58:44.909Z,3.8
2019-04-21T11:01:45.539Z,4.8
2019-04-21T11:04:47.297Z,4.8
2019-04-21T11:10:45.959Z,4.5
2019-04-21T11:13:44.864Z,4
2019-04-21T11:16:58.651Z,3.4
2019-04-21T11:19:44.483Z,3.5
2019-04-21T11:22:44.547Z,3.1
2019-04-21T11:25:44.638Z,3
2019-04-21T11:28:45.546Z,3.1
2019-04-21T11:31:45.569Z,4
2019-04-21T11:34:45.682Z,3.3
2019-04-21T11:37:44.510Z,3
2019-04-21T11:40:45.811Z,3.3
2019-04-21T11:43:45.780Z,3
2019-04-21T11:46:44.855Z,3.1
2019-04-21T11:49:45.602Z,2.8
2019-04-21T11:52:45.535Z,2.7
2019-04-21T11:55:57.111Z,2.6
2019-04-21T11:58:46.126Z,2.6
2019-04-21T12:01:46.083Z,2.6
2019-04-21T12:04:45.697Z,2.7
2019-04-21T12:07:45.541Z,2.9
2019-04-21T12:10:45.439Z,2.7
2019-04-21T12:13:46.371Z,2.8
2019-04-21T12:16:44.500Z,3
2019-04-21T12:19:46.494Z,3
2019-04-21T12:22:45.816Z,2.8
2019-04-21T12:25:45.639Z,2.6
2019-04-21T12:28:46.263Z,2.6
2019-04-21T12:31:45.794Z,2.6
2019-04-21T12:34:55.435Z,2.6
2019-04-21T12:37:45.116Z,2.8
2019-04-21T12:40:44.739Z,2.6
2019-04-21T12:43:44.831Z,2.6
2019-04-21T12:46:45.896Z,2.5
2019-04-21T12:49:45.944Z,2.7
2019-04-21T12:52:45.707Z,2.6
2019-04-21T12:55:51.971Z,2.6
2019-04-21T12:58:44.697Z,2.6
2019-04-21T13:01:45.591Z,2.9
2019-04-21T13:04:46.509Z,3.4
2019-04-21T13:07:46.053Z,3.2
2019-04-21T13:10:44.723Z,3.1
2019-04-21T13:13:44.454Z,3.3
2019-04-21T13:16:46.025Z,2.9
2019-04-21T13:19:45.633Z,3.1
2019-04-21T13:22:46.449Z,2.9
2019-04-21T13:25:46.145Z,2.8
2019-04-21T13:28:44.952Z,3.5
2019-04-21T13:31:44.908Z,3.4
2019-04-21T13:34:47.739Z,3
2019-04-21T13:37:46.137Z,3.1
2019-04-21T13:43:47.608Z,3
2019-04-21T13:46:49.495Z,2.7
2019-04-21T13:49:45.763Z,4
2019-04-21T13:52:46.949Z,4.5
2019-04-21T13:55:46.955Z,4.2
2019-04-21T13:58:44.590Z,3.5
2019-04-21T14:01:46.040Z,3.5
2019-04-21T14:04:45.641Z,3.2
2019-04-21T14:07:45.819Z,3.2
2019-04-21T14:10:44.560Z,3.5
2019-04-21T14:13:45.078Z,4
2019-04-21T14:16:46.092Z,3.8
2019-04-21T14:19:45.932Z,4.4
2019-04-21T14:22:44.727Z,3.5
2019-04-21T14:25:46.126Z,3.1
2019-04-21T14:28:45.288Z,3.3
2019-04-21T14:31:44.591Z,3.1
2019-04-21T14:34:54.321Z,3.1
2019-04-21T14:37:44.849Z,3.3
2019-04-21T14:40:46.406Z,3.1
2019-04-21T14:43:46.190Z,3.2
2019-04-21T14:46:45.253Z,3.2
2019-04-21T14:49:45.242Z,3.3
2019-04-21T14:52:44.762Z,3.1
2019-04-21T14:55:46.119Z,2.9
2019-04-21T14:58:47.123Z,2.9
2019-04-21T15:01:46.503Z,3.1
2019-04-21T15:04:46.186Z,3.1
2019-04-21T15:07:45.780Z,2.8
2019-04-21T15:10:45.647Z,3.2
2019-04-21T15:13:46.182Z,2.9
2019-04-21T15:16:45.349Z,3.1
2019-04-21T15:22:44.659Z,2.8
2019-04-21T15:25:46.300Z,2.7
2019-04-21T15:28:44.825Z,4.6
2019-04-21T15:31:46.868Z,5.8
2019-04-21T15:34:44.710Z,4.8
2019-04-21T15:52:52.042Z,3.6
2019-04-21T15:55:53.198Z,4.3
2019-04-21T16:00:27.101Z,5.1
2019-04-21T16:03:27.137Z,4.5
2019-04-21T16:06:27.387Z,4.9
2019-04-21T16:09:37.797Z,5.5
2019-04-21T16:12:29.915Z,5
2019-04-21T16:15:26.616Z,4.5
2019-04-21T16:18:25.856Z,4.5
2019-04-21T16:21:26.554Z,5.1
2019-04-21T16:24:25.737Z,4.6
2019-04-21T16:27:27.961Z,6.5
2019-04-21T16:30:26.213Z,6.4
2019-04-21T16:33:27.491Z,7.1
2019-04-21T16:36:25.919Z,5.9
2019-04-21T16:39:27.607Z,5
2019-04-21T16:42:25.824Z,5.8
2019-04-21T16:45:25.763Z,5.8
2019-04-21T16:48:25.724Z,4.6
2019-04-21T16:51:26.849Z,6.5
2019-04-21T16:54:26.591Z,7
2019-04-21T16:57:26.322Z,6.2
2019-04-21T17:03:28.330Z,6.2
2019-04-21T17:06:27.397Z,5.5
2019-04-21T17:09:28.515Z,4.8
2019-04-21T17:12:30.930Z,5.1
2019-04-21T17:21:34.624Z,4.7
2019-04-21T17:24:28.158Z,5.1
2019-04-21T17:27:27.463Z,4.7
2019-04-21T17:30:26.850Z,5.7
2019-04-21T17:33:37.261Z,4.8
2019-04-21T17:36:27.591Z,4.6
2019-04-21T17:39:27.348Z,4.8
2019-04-21T17:45:27.357Z,5
2019-04-21T17:48:27.423Z,5.6
2019-04-21T17:51:26.087Z,4.8
2019-04-21T18:18:26.874Z,3.9
2019-04-21T18:21:27.309Z,3.7
2019-04-21T18:27:30.102Z,3.2
2019-04-21T18:30:26.861Z,3.4
2019-04-21T19:36:36.909Z,4.1
2019-04-21T19:57:27.551Z,6
2019-04-21T20:00:28.568Z,6.5
2019-04-21T20:03:26.611Z,5.9
2019-04-21T20:21:27.049Z,4.9
2019-04-21T21:54:27.946Z,3.1
2019-04-21T21:57:26.525Z,3.4
2019-04-21T22:00:26.344Z,3.2
2019-04-21T22:09:26.681Z,3.7
2019-04-21T22:15:35.848Z,3.5
2019-04-21T22:27:25.781Z,3.1
2019-04-21T22:45:27.500Z,4.1
2019-04-21T22:48:30.990Z,3.7
2019-04-21T23:03:47.751Z,2.9
2019-04-21T23:09:27.064Z,2.6
2019-04-21T23:33:34.820Z,2.8
2019-04-21T23:39:39.640Z,2.6
2019-04-21T23:54:27.372Z,2.9
